SJTSAN ANGELO RGNL/MATHIS FLD
METARs for airports near SJT, sorted by distance:
N 0 nm 1918' KSJT 221951Z 18011G20KT 10SM BKN055 24/09 A3011
S 47 nm 2139' KSOA 221955Z 16009G15KT 10SM CLR 23/06 A3018
SW 52 nm 2376' KOZA 221955Z 17015G23KT 10SM CLR 23/06 A3015
E 61 nm 1827' KBBD 221955Z 15008G17KT 10SM OVC055 20/05 A3015
NE 62 nm 1696' KCOM 221955Z 16011G18KT 10SM CLR 21/08 A3015
SE 63 nm 1753' KJCT 221951Z 19009G14KT 10SM OVC060 25/08 A3015
N 66 nm 2379' KSWW 221955Z 20014G18KT 10SM 22/09 A3013
NE 71 nm 1790' KDYS 221955Z 18019G23KT 10SM CLR 22/07 A3007
NW 73 nm 2572' KBPG 221955Z 18014G18KT 10SM SCT046 22/10 A3010
NE 75 nm 1790' KABI 221952Z 18013KT 10SM CLR 22/08 A3012
E 83 nm 1386' KBWD 221955Z 14012G17KT 10SM CLR 21/06 A3015
N 83 nm 2430' KSNK 221955Z 19015G22KT 10SM CLR 21/08 A3010
S 86 nm 2372' KECU 221955Z 14010G17KT 10SM OVC060 20/05 A3021
NW 91 nm 2805' KMDD 221955Z 21013G20KT 10SM CLR 22/09 A3009
W 94 nm 2872' KMAF 221953Z 19016G24KT 10SM CLR 22/09 A3008
NE 96 nm 1711' KGZN 221940Z 17012G17KT 10SM CLR 21/06 A3012
TAFs for airports near SJT, sorted by distance:
N 0 nm 1918' KSJT KSJT 221721Z 2218/2318 18010G18KT P6SM BKN060
  FM221900 17010G18KT P6SM FEW060
  FM230000 18010KT P6SM SKC
  FM231200 20011G18KT P6SM BKN020
  FM231500 20015G22KT P6SM FEW020
S 47 nm 2139' KSOA KSOA 221721Z 2218/2318 18011KT P6SM FEW060
  FM230800 18010KT P6SM BKN015
  FM231600 18012KT P6SM SCT025
E 61 nm 1827' KBBD KBBD 221721Z 2218/2318 18010G18KT P6SM SCT060
  FM230100 18008KT P6SM SKC
  FM230900 18008KT P6SM BKN020
  FM231100 19011KT P6SM BKN015 WS020/21035KT
  FM231400 19014G21KT P6SM BKN015
  FM231600 19015G21KT P6SM SCT025
SE 63 nm 1753' KJCT KJCT 221721Z 2218/2318 18010KT P6SM BKN060
  FM221900 17011KT P6SM FEW060
  FM230200 16005KT P6SM SCT040
  FM230800 18006KT P6SM BKN020 WS020/20035KT
  FM231700 20012G20KT P6SM FEW020
NE 71 nm 1790' KDYS TAF TAF KDYS 221600Z 2216/2322 16012G18KT 9999 FEW060 QNH2997INS
  BECMG 2306/2307 19015G25KT 9999 SCT030 QNH2992INS
  BECMG 2317/2318 21012G18KT 9999 SCT050 QNH2984INS TX21/2221Z TN13/2312Z
NE 75 nm 1790' KABI TAF KABI 221721Z 2218/2318 17013G20KT P6SM SCT060
  FM230000 16011KT P6SM SCT250
  FM230400 18014G21KT P6SM SKC
W 94 nm 2872' KMAF KMAF 221731Z 2218/2318 18017G23KT P6SM FEW250
  FM230100 17013KT P6SM SKC

Shortcut to this page: http://wxbay.com.

Data may contain errors.